ROCK41 KPDX-
Flight info
| Callsign | ROCK41 |
|---|---|
| Flight time | N/A |
| Altitude | |
| Route | PATTERNS |
| Aircraft | F15/M-VW/C |
Departure
| Time | 2026-05-06 07:14 |
|---|---|
| Airport | Portland International Airport (KPDX) |
Arrival
| Time | N/A |
|---|---|
| Airport | - |
| Time | Latitude | Longitude | Altitude | Speed | Heading |
|---|---|---|---|---|---|
| 2026-05-06 07:10 | 45.57943 | -122.58748 | 31 ft | 0 kts | 120° |
| 2026-05-06 07:11 | 45.57926 | -122.58705 | 31 ft | 10 kts | 118° |
| 2026-05-06 07:11 | 45.57894 | -122.58607 | 31 ft | 13 kts | 99° |
| 2026-05-06 07:11 | 45.57923 | -122.58515 | 31 ft | 8 kts | 33° |
| 2026-05-06 07:11 | 45.57965 | -122.58482 | 31 ft | 2 kts | 29° |
| 2026-05-06 07:12 | 45.57967 | -122.58481 | 31 ft | 0 kts | 28° |
| 2026-05-06 07:13 | 45.57988 | -122.58464 | 31 ft | 10 kts | 28° |
| 2026-05-06 07:13 | 45.58084 | -122.58474 | 31 ft | 18 kts | 302° |
| 2026-05-06 07:13 | 45.58454 | -122.59424 | 40 ft | 225 kts | 299° |
| 2026-05-06 07:13 | 45.59500 | -122.62261 | 319 ft | 393 kts | 275° |
| 2026-05-06 07:14 | 45.57913 | -122.63448 | 980 ft | 309 kts | 127° |
| 2026-05-06 07:14 | 45.56835 | -122.61086 | 1968 ft | 267 kts | 123° |
| 2026-05-06 07:14 | 45.55793 | -122.58984 | 2106 ft | 261 kts | 126° |
| 2026-05-06 07:14 | 45.54687 | -122.56860 | 1922 ft | 269 kts | 127° |
| 2026-05-06 07:15 | 45.53563 | -122.54720 | 1927 ft | 268 kts | 127° |
| 2026-05-06 07:15 | 45.52388 | -122.52671 | 1969 ft | 265 kts | 129° |
| 2026-05-06 07:15 | 45.52202 | -122.50349 | 1852 ft | 259 kts | 48° |
| 2026-05-06 07:15 | 45.53852 | -122.49686 | 1322 ft | 266 kts | 343° |
| 2026-05-06 07:16 | 45.55272 | -122.51355 | 1002 ft | 272 kts | 301° |
| 2026-05-06 07:16 | 45.56217 | -122.53750 | 922 ft | 281 kts | 299° |
| 2026-05-06 07:16 | 45.57184 | -122.56237 | 801 ft | 290 kts | 299° |
| 2026-05-06 07:16 | 45.58191 | -122.58794 | 696 ft | 298 kts | 299° |
| 2026-05-06 07:17 | 45.57901 | -122.61372 | 808 ft | 327 kts | 182° |
| 2026-05-06 07:17 | 45.56459 | -122.59723 | 922 ft | 255 kts | 126° |
| 2026-05-06 07:17 | 45.55711 | -122.57739 | 926 ft | 200 kts | 77° |
| 2026-05-06 07:17 | 45.56540 | -122.56648 | 764 ft | 156 kts | 359° |
| 2026-05-06 07:18 | 45.57529 | -122.57118 | 384 ft | 158 kts | 308° |
| 2026-05-06 07:18 | 45.58125 | -122.58583 | 69 ft | 213 kts | 299° |
| 2026-05-06 07:18 | 45.59231 | -122.61429 | 140 ft | 448 kts | 299° |
| 2026-05-06 07:18 | 45.58248 | -122.63903 | 1658 ft | 354 kts | 140° |
| 2026-05-06 07:19 | 45.56430 | -122.58753 | 1636 ft | 303 kts | 112° |
| 2026-05-06 07:19 | 45.55671 | -122.56221 | 1307 ft | 287 kts | 114° |
| 2026-05-06 07:19 | 45.54879 | -122.53756 | 1241 ft | 254 kts | 114° |
| 2026-05-06 07:20 | 45.54715 | -122.51493 | 969 ft | 260 kts | 40° |
| 2026-05-06 07:20 | 45.56239 | -122.52399 | 1127 ft | 321 kts | 263° |
| 2026-05-06 07:20 | 45.56773 | -122.55143 | 695 ft | 285 kts | 299° |
| 2026-05-06 07:20 | 45.57717 | -122.57574 | 550 ft | 274 kts | 299° |
| 2026-05-06 07:21 | 45.58651 | -122.59978 | 431 ft | 279 kts | 298° |
| 2026-05-06 07:21 | 45.59578 | -122.62447 | 337 ft | 308 kts | 281° |
| 2026-05-06 07:21 | 45.58234 | -122.63684 | 569 ft | 298 kts | 139° |
| 2026-05-06 07:21 | 45.56676 | -122.61618 | 979 ft | 314 kts | 136° |
| 2026-05-06 07:22 | 45.55147 | -122.59509 | 942 ft | 288 kts | 123° |
| 2026-05-06 07:22 | 45.55374 | -122.57344 | 1051 ft | 225 kts | 36° |
| 2026-05-06 07:22 | 45.56796 | -122.56634 | 562 ft | 209 kts | 357° |
| 2026-05-06 07:22 | 45.57800 | -122.57728 | 152 ft | 186 kts | 298° |
| 2026-05-06 07:23 | 45.58570 | -122.59731 | 59 ft | 332 kts | 298° |
| 2026-05-06 07:23 | 45.59529 | -122.63545 | 733 ft | 432 kts | 235° |
| 2026-05-06 07:23 | 45.57491 | -122.62875 | 1033 ft | 366 kts | 121° |
| 2026-05-06 07:23 | 45.56170 | -122.60043 | 1202 ft | 320 kts | 123° |
| 2026-05-06 07:24 | 45.55136 | -122.57490 | 1176 ft | 281 kts | 95° |
| 2026-05-06 07:24 | 45.56188 | -122.55705 | 683 ft | 255 kts | 5° |
| 2026-05-06 07:24 | 45.57670 | -122.56512 | 561 ft | 237 kts | 300° |
| 2026-05-06 07:24 | 45.58523 | -122.58601 | 248 ft | 245 kts | 301° |
| 2026-05-06 07:25 | 45.58773 | -122.61563 | 651 ft | 346 kts | 238° |
| 2026-05-06 07:25 | 45.57056 | -122.61729 | 1245 ft | 295 kts | 110° |
| 2026-05-06 07:25 | 45.56498 | -122.58847 | 875 ft | 284 kts | 104° |
| 2026-05-06 07:25 | 45.56453 | -122.56489 | 749 ft | 209 kts | 49° |
| 2026-05-06 07:26 | 45.57557 | -122.55836 | 566 ft | 169 kts | 332° |
| 2026-05-06 07:26 | 45.58052 | -122.57643 | 267 ft | 282 kts | 279° |
| 2026-05-06 07:26 | 45.58844 | -122.60398 | 367 ft | 323 kts | 298° |
| 2026-05-06 07:26 | 45.59040 | -122.63375 | 519 ft | 324 kts | 215° |
| 2026-05-06 07:27 | 45.57214 | -122.62601 | 793 ft | 302 kts | 126° |
| 2026-05-06 07:27 | 45.55952 | -122.60227 | 1038 ft | 302 kts | 126° |
| 2026-05-06 07:27 | 45.54667 | -122.57774 | 1166 ft | 305 kts | 125° |
| 2026-05-06 07:27 | 45.53565 | -122.55240 | 1332 ft | 299 kts | 97° |
| 2026-05-06 07:28 | 45.54627 | -122.53370 | 1371 ft | 268 kts | 359° |
| 2026-05-06 07:28 | 45.56337 | -122.54276 | 655 ft | 258 kts | 313° |
| 2026-05-06 07:28 | 45.58354 | -122.59229 | 347 ft | 304 kts | 299° |
| 2026-05-06 07:29 | 45.57496 | -122.61726 | 576 ft | 372 kts | 165° |
| 2026-05-06 07:29 | 45.56054 | -122.59232 | 1042 ft | 294 kts | 121° |
| 2026-05-06 07:29 | 45.55946 | -122.56832 | 986 ft | 227 kts | 49° |
| 2026-05-06 07:29 | 45.57192 | -122.56514 | 637 ft | 198 kts | 314° |
| 2026-05-06 07:30 | 45.57954 | -122.58155 | 143 ft | 194 kts | 299° |
| 2026-05-06 07:30 | 45.58820 | -122.60385 | 44 ft | 374 kts | 299° |
| 2026-05-06 07:30 | 45.58931 | -122.64108 | 1162 ft | 410 kts | 187° |
| 2026-05-06 07:30 | 45.57366 | -122.61832 | 1414 ft | 350 kts | 113° |
| 2026-05-06 07:31 | 45.56194 | -122.58887 | 902 ft | 314 kts | 121° |
| 2026-05-06 07:31 | 45.56021 | -122.56696 | 705 ft | 183 kts | 47° |
| 2026-05-06 07:31 | 45.56996 | -122.56393 | 429 ft | 134 kts | 333° |
| 2026-05-06 07:31 | 45.57644 | -122.57367 | 203 ft | 149 kts | 300° |
| 2026-05-06 07:32 | 45.58176 | -122.58711 | 32 ft | 144 kts | 299° |
| 2026-05-06 07:32 | 45.58747 | -122.60178 | 80 ft | 262 kts | 299° |
| 2026-05-06 07:32 | 45.59949 | -122.63545 | 467 ft | 461 kts | 263° |
| 2026-05-06 07:32 | 45.57810 | -122.62936 | 1610 ft | 413 kts | 115° |
| 2026-05-06 07:33 | 45.56679 | -122.59589 | 1500 ft | 329 kts | 115° |
| 2026-05-06 07:33 | 45.56271 | -122.56891 | 1263 ft | 246 kts | 44° |
| 2026-05-06 07:33 | 45.57492 | -122.57033 | 426 ft | 171 kts | 298° |
| 2026-05-06 07:33 | 45.58025 | -122.58332 | 54 ft | 133 kts | 299° |
| 2026-05-06 07:34 | 45.58544 | -122.59663 | 38 ft | 241 kts | 299° |
| 2026-05-06 07:34 | 45.59756 | -122.62867 | 382 ft | 437 kts | 274° |
| 2026-05-06 07:34 | 45.58069 | -122.63001 | 574 ft | 344 kts | 117° |
| 2026-05-06 07:34 | 45.56958 | -122.60098 | 791 ft | 309 kts | 119° |
| 2026-05-06 07:35 | 45.55941 | -122.57624 | 744 ft | 273 kts | 115° |
| 2026-05-06 07:35 | 45.56472 | -122.56091 | 643 ft | 162 kts | 357° |
| 2026-05-06 07:35 | 45.57372 | -122.56751 | 280 ft | 136 kts | 307° |
| 2026-05-06 07:35 | 45.57842 | -122.57860 | 97 ft | 131 kts | 299° |
| 2026-05-06 07:36 | 45.58270 | -122.58958 | 31 ft | 112 kts | 299° |
| 2026-05-06 07:36 | 45.58564 | -122.59709 | 31 ft | 56 kts | 299° |
| 2026-05-06 07:36 | 45.58636 | -122.60030 | 31 ft | 17 kts | 269° |
| 2026-05-06 07:36 | 45.58620 | -122.60095 | 31 ft | 0 kts | 192° |
| 2026-05-06 07:37 | 45.58573 | -122.60049 | 30 ft | 17 kts | 121° |
| 2026-05-06 07:37 | 45.58511 | -122.59890 | 31 ft | 18 kts | 118° |
| 2026-05-06 07:38 | 45.58446 | -122.59724 | 30 ft | 20 kts | 118° |
| 2026-05-06 07:38 | 45.58372 | -122.59535 | 30 ft | 21 kts | 119° |
| 2026-05-06 07:38 | 45.58302 | -122.59359 | 30 ft | 17 kts | 129° |
| 2026-05-06 07:38 | 45.58209 | -122.59345 | 30 ft | 12 kts | 184° |
| 2026-05-06 07:39 | 45.58130 | -122.59312 | 30 ft | 10 kts | 194° |
| 2026-05-06 07:39 | 45.58067 | -122.59358 | 30 ft | 12 kts | 210° |
| 2026-05-06 07:39 | 45.58024 | -122.59349 | 30 ft | 6 kts | 66° |
| 2026-05-06 07:39 | 45.58034 | -122.59326 | 30 ft | 0 kts | 59° |